Terminal Aerodrome Forecast
Issued by NWS

Current Version | Previous Version | Text Only | Print | Product List | Glossary On
Versions: 1 2 3 4 5 6 7 8 9 10 11 12
378
FTUS45 KMSO 301730
TAFSMN
TAF
KSMN 301730Z 3018/0118 11010KT P6SM VCSH OVC060
     FM302000 31010G18KT P6SM VCSH BKN070
     FM010200 36007KT P6SM BKN060
      AMD LTD TO CLD VIS AND WIND=

USA.gov is the U.S. government's official web portal to all federal, state and local government web resources and services.